KCXO

Conroe-North Houston Regional Airport

Houston, Texas, USA
METAR KCXO 150253Z AUTO 14005KT 10SM CLR 27/24 A2997 RMK AO2 SLP145 T02670244 53009
Observed Flight Rules
Aug-15 @ 02:53 UTC (42 minutes ago) Visual Flight Rules
Wind Visibility Clouds
140° at 5 knots 10 miles
  • Clear skies
Temperatures Readings
Current 27°C / 81°F
Dewpoint 24°C / 75°F
Humidity 84%
Altimeter 29.97" Hg
Pressure 1014.5 hPa
Elevation 75
METAR KCXO 150253Z AUTO 14005KT 10SM CLR 27/24 A2997 RMK AO2 SLP145 T02670244 53009
Observed Flight Rules
Aug-15 @ 02:53 UTC
(42 minutes ago)
VFR
Wind Visibility
140° at 5 knots 10 miles
Clouds
  • Clear skies
Temperature Dewpoint
27°C / 81°F 24°C / 75°F
Humidity Altimeter Pressure
84% 29.97" Hg 1014.5 hPa